KMGE/MGE METAR and TAF weather

Enter ICAO airport designator
Station Type Date Time Source
KMGE METAR 2020/04/03 07:56 UTC NOAA

KMGE 030756Z AUTO 00000KT 10SM CLR 08/03 A3000 RMK AO2 SLP158 T00760025 $


Station Type Date Time Source
KMGE Decoded METAR 2020/04/03 07:56 UTC NOAA

Marietta / Dobbins Air Force Base, GA, United States (KMGE) 33-55N 084-31W 326M
Apr 03, 2020 - 03:56 AM EDT / 2020.04.03 0756 UTC
Wind: Calm:0
Visibility: 10 mile(s):0
Sky conditions: clear
Temperature: 45.7 F (7.6 C)
Dew Point: 36.5 F (2.5 C)
Relative Humidity: 70%
Pressure (altimeter): 30 in. Hg (1015 hPa)
ob: KMGE 030756Z AUTO 00000KT 10SM CLR 08/03 A3000 RMK AO2 SLP158 T00760025
cycle: 8

Station Type Date Time Source
KMGE TAF 2020/04/03 05:03 UTC NOAA

TAF KMGE 030500Z 0305/0411 VRB06KT 9999 FEW250 QNH2997INS TX21/0322Z TN07/0312Z

Example: see airport list